Time;durP1;ratioP1;P1;durP2;ratioP2;P2;SDS_P1;SDS_P2;PMS_P1;PMS_P2;Temp;Humidity;BMP_temperature;BMP_pressure;BME280_temperature;BME280_humidity;BME280_pressure;Samples;Min_cycle;Max_cycle;Signal;HPM_P1;HPM_P2
2021/12/21 00:02:23;;;;;;;9.27;5.80;;;-0.40;99.90;;;;;;4941448;29;21054;-68
2021/12/21 00:04:49;;;;;;;8.53;6.60;;;-0.50;99.90;;;;;;4941194;29;20512;-69
2021/12/21 00:07:14;;;;;;;16.40;7.73;;;-0.50;99.90;;;;;;4947378;29;20527;-69
2021/12/21 00:09:40;;;;;;;9.90;8.00;;;-0.50;99.90;;;;;;4947973;29;20184;-68
2021/12/21 00:12:06;;;;;;;10.27;7.37;;;-0.60;99.90;;;;;;4941684;29;20216;-69
2021/12/21 00:17:32;;;;;;;7.80;6.73;;;-0.60;99.90;;;;;;4939653;29;20433;-68
2021/12/21 00:20:23;;;;;;;11.13;5.93;;;-0.70;99.90;;;;;;4950331;29;20197;-70
2021/12/21 00:25:18;;;;;;;12.50;5.33;;;-0.70;99.90;;;;;;4939699;29;20441;-68
2021/12/21 00:27:46;;;;;;;10.20;5.47;;;-0.70;99.90;;;;;;4942857;29;20433;-68
2021/12/21 00:30:12;;;;;;;10.33;4.90;;;-0.70;99.90;;;;;;4942437;29;20448;-68
2021/12/21 00:32:38;;;;;;;11.70;5.67;;;-0.70;99.90;;;;;;4948377;28;20464;-69
2021/12/21 00:35:04;;;;;;;6.50;5.77;;;-0.60;99.90;;;;;;4937684;28;20199;-70
2021/12/21 00:37:30;;;;;;;8.53;4.87;;;-0.70;99.90;;;;;;4935087;29;20261;-68
2021/12/21 00:39:55;;;;;;;9.60;5.60;;;-0.60;99.90;;;;;;4943406;29;20449;-69
2021/12/21 00:42:21;;;;;;;7.80;5.07;;;-0.60;99.90;;;;;;4939745;28;20209;-69
2021/12/21 00:44:46;;;;;;;13.43;7.77;;;-0.60;99.90;;;;;;4935411;29;20182;-68
2021/12/21 00:47:14;;;;;;;16.00;10.23;;;-0.70;99.90;;;;;;4934584;29;20229;-68
2021/12/21 00:49:45;;;;;;;16.53;8.50;;;-0.80;99.90;;;;;;4933941;29;20215;-71
2021/12/21 00:52:10;;;;;;;18.17;7.53;;;-0.80;99.90;;;;;;4939668;29;20464;-69
2021/12/21 00:54:36;;;;;;;11.60;8.77;;;-0.90;99.90;;;;;;4935149;29;20578;-68
2021/12/21 00:57:04;;;;;;;15.67;8.60;;;-0.90;99.90;;;;;;4948476;29;20196;-68
2021/12/21 00:59:33;;;;;;;10.20;7.83;;;-1.00;99.90;;;;;;4934749;29;20190;-70
2021/12/21 01:01:58;;;;;;;11.50;7.73;;;-1.00;99.90;;;;;;4934661;29;20484;-69
2021/12/21 01:04:31;;;;;;;15.17;7.10;;;-1.00;99.90;;;;;;4935121;29;20971;-68
2021/12/21 01:07:06;;;;;;;11.17;6.60;;;-1.00;99.90;;;;;;4934650;29;20178;-69
2021/12/21 01:12:14;;;;;;;10.10;7.47;;;-1.00;99.90;;;;;;4934487;29;20843;-71
2021/12/21 01:17:22;;;;;;;12.57;5.63;;;-1.10;99.90;;;;;;4934300;29;20958;-69
2021/12/21 01:20:02;;;;;;;7.73;6.13;;;-1.10;99.90;;;;;;4934785;29;20483;-69
2021/12/21 01:22:52;;;;;;;14.23;7.00;;;-1.10;99.90;;;;;;4934742;29;20457;-68
2021/12/21 01:27:58;;;;;;;16.60;8.20;;;-1.00;99.90;;;;;;4934318;29;20449;-70
2021/12/21 01:33:30;;;;;;;10.20;6.17;;;-1.00;99.90;;;;;;4934542;29;20468;-68
2021/12/21 01:35:56;;;;;;;9.30;6.20;;;-1.00;99.90;;;;;;4935050;29;20828;-68
2021/12/21 01:38:30;;;;;;;10.53;7.17;;;-1.00;99.90;;;;;;4936301;28;20556;-68
2021/12/21 01:41:06;;;;;;;11.47;6.63;;;-1.10;99.90;;;;;;4934012;29;20449;-69
2021/12/21 01:43:53;;;;;;;15.23;7.40;;;-1.00;99.90;;;;;;4933857;29;20480;-68
2021/12/21 01:51:46;;;;;;;10.07;6.70;;;-1.10;99.90;;;;;;4927863;29;20508;-69
2021/12/21 01:54:12;;;;;;;6.73;5.20;;;-1.10;99.90;;;;;;4948660;29;20836;-69
2021/12/21 01:56:38;;;;;;;9.60;5.43;;;-1.10;99.90;;;;;;4933071;29;20188;-68
2021/12/21 01:59:04;;;;;;;7.77;5.60;;;-1.10;99.90;;;;;;4933354;29;20548;-70
2021/12/21 02:01:29;;;;;;;10.00;6.30;;;-1.10;99.90;;;;;;4927859;28;20455;-71
2021/12/21 02:03:55;;;;;;;9.37;5.93;;;-1.20;99.90;;;;;;4940021;29;20585;-69
2021/12/21 02:06:25;;;;;;;10.73;6.33;;;-1.30;99.90;;;;;;4939983;29;20581;-70
2021/12/21 02:08:51;;;;;;;7.30;5.40;;;-1.20;99.90;;;;;;4939469;29;20272;-68
2021/12/21 02:11:17;;;;;;;12.93;6.47;;;-1.30;99.90;;;;;;4944677;28;20468;-69
2021/12/21 02:13:49;;;;;;;12.47;7.83;;;-1.30;99.90;;;;;;4936925;29;20469;-71
2021/12/21 02:16:24;;;;;;;8.13;5.87;;;-1.30;99.90;;;;;;4941611;29;20433;-70
2021/12/21 02:19:07;;;;;;;6.13;4.47;;;-1.40;99.90;;;;;;4940082;29;20500;-70
2021/12/21 02:21:40;;;;;;;12.87;6.23;;;-1.40;99.90;;;;;;4940471;29;20449;-71
2021/12/21 02:24:11;;;;;;;8.60;6.47;;;-1.50;99.90;;;;;;4940181;29;20433;-70
2021/12/21 02:26:45;;;;;;;8.90;5.90;;;-1.40;99.90;;;;;;4939923;29;20433;-71
2021/12/21 02:29:33;;;;;;;11.10;5.77;;;-1.50;99.90;;;;;;4940038;29;20437;-71
2021/12/21 02:31:58;;;;;;;11.07;5.00;;;-1.60;99.90;;;;;;4940193;29;20453;-71
2021/12/21 02:34:25;;;;;;;10.30;6.90;;;-1.50;99.90;;;;;;4940234;29;20820;-70
2021/12/21 02:36:53;;;;;;;9.03;5.67;;;-1.60;99.90;;;;;;4939732;29;20217;-71
2021/12/21 02:39:21;;;;;;;10.30;5.83;;;-1.60;99.90;;;;;;4938956;29;20464;-71
2021/12/21 02:41:48;;;;;;;7.40;4.77;;;-1.60;99.90;;;;;;4939939;29;20949;-71
2021/12/21 02:44:14;;;;;;;12.63;6.20;;;-1.60;99.90;;;;;;4939928;29;20562;-71
2021/12/21 02:46:42;;;;;;;6.77;5.30;;;-1.50;99.90;;;;;;4939698;29;20457;-71
2021/12/21 02:49:09;;;;;;;7.90;5.13;;;-1.50;99.90;;;;;;4939971;29;20523;-71
2021/12/21 02:51:38;;;;;;;8.97;5.40;;;-1.50;99.90;;;;;;4921615;29;20913;-70
2021/12/21 02:54:03;;;;;;;13.23;6.37;;;-1.50;99.90;;;;;;4938148;29;20437;-71
2021/12/21 02:56:29;;;;;;;10.47;5.63;;;-1.50;99.90;;;;;;4939715;29;20500;-71
2021/12/21 02:58:54;;;;;;;9.80;5.63;;;-1.50;99.90;;;;;;4939791;29;20308;-71
2021/12/21 03:01:20;;;;;;;9.97;4.93;;;-1.50;99.90;;;;;;4939819;29;20201;-71
2021/12/21 03:03:46;;;;;;;9.60;6.40;;;-1.50;99.90;;;;;;4939931;29;20212;-71
2021/12/21 03:06:33;;;;;;;10.73;6.40;;;-1.50;99.90;;;;;;4939338;29;20185;-71
2021/12/21 03:08:58;;;;;;;8.20;5.43;;;-1.60;99.90;;;;;;4939365;29;20453;-71
2021/12/21 03:11:48;;;;;;;13.13;6.30;;;-1.70;99.90;;;;;;4938309;29;20615;-71
2021/12/21 03:14:14;;;;;;;9.10;5.50;;;-1.60;99.90;;;;;;4935584;29;20445;-71
2021/12/21 03:16:40;;;;;;;11.87;6.70;;;-1.70;99.90;;;;;;4936549;29;20441;-71
2021/12/21 03:19:08;;;;;;;6.20;4.83;;;-1.70;99.90;;;;;;4936322;29;20468;-70
2021/12/21 03:21:35;;;;;;;6.83;5.60;;;-1.80;99.90;;;;;;4936522;29;20212;-71
2021/12/21 03:24:02;;;;;;;12.13;6.60;;;-1.80;99.90;;;;;;4936733;29;20525;-70
2021/12/21 03:26:28;;;;;;;6.83;5.40;;;-1.80;99.90;;;;;;4936179;29;20441;-70
2021/12/21 03:28:54;;;;;;;9.77;4.90;;;-1.80;99.90;;;;;;4936767;29;20441;-71
2021/12/21 03:31:20;;;;;;;15.60;7.43;;;-1.80;99.90;;;;;;4936352;29;20971;-71
2021/12/21 03:33:47;;;;;;;6.63;4.60;;;-1.80;99.90;;;;;;4936462;29;20471;-71
2021/12/21 03:36:13;;;;;;;9.37;5.13;;;-1.70;99.90;;;;;;4936112;29;20473;-71
2021/12/21 03:38:41;;;;;;;6.73;5.00;;;-1.80;99.90;;;;;;4936208;29;20517;-70
2021/12/21 03:41:12;;;;;;;7.70;6.47;;;-1.80;99.90;;;;;;4935971;29;20544;-71
2021/12/21 03:43:38;;;;;;;13.80;6.00;;;-1.70;99.90;;;;;;4935865;29;20512;-69
2021/12/21 03:46:10;;;;;;;9.20;5.13;;;-1.80;99.90;;;;;;4931557;29;20438;-71
2021/12/21 03:48:37;;;;;;;7.80;5.27;;;-1.80;99.90;;;;;;4926086;29;20656;-72
2021/12/21 03:51:04;;;;;;;9.87;7.37;;;-1.80;99.90;;;;;;4935703;29;20836;-69
2021/12/21 03:53:30;;;;;;;12.73;6.53;;;-1.80;99.90;;;;;;4936152;29;20441;-68
2021/12/21 03:58:47;;;;;;;10.23;6.40;;;-1.80;99.90;;;;;;4920878;29;20464;-69
2021/12/21 04:01:13;;;;;;;9.90;5.80;;;-1.90;99.90;;;;;;4935750;29;20464;-69
2021/12/21 04:03:39;;;;;;;8.03;4.73;;;-1.90;99.90;;;;;;4936027;29;20185;-69
2021/12/21 04:06:05;;;;;;;12.73;5.90;;;-2.00;99.90;;;;;;4935538;29;21163;-69
2021/12/21 04:08:31;;;;;;;9.70;6.10;;;-2.00;99.90;;;;;;4931202;29;20227;-69
2021/12/21 04:10:56;;;;;;;11.70;5.87;;;-2.00;99.90;;;;;;4935332;29;20560;-69
2021/12/21 04:13:22;;;;;;;14.93;6.17;;;-2.00;99.90;;;;;;4935629;29;20186;-69
2021/12/21 04:15:52;;;;;;;12.17;5.23;;;-2.00;99.90;;;;;;4935427;29;20178;-70
2021/12/21 04:18:20;;;;;;;9.30;5.57;;;-2.00;99.90;;;;;;4936188;29;20216;-69
2021/12/21 04:20:45;;;;;;;6.23;5.27;;;-1.90;99.90;;;;;;4935641;29;20476;-69
2021/12/21 04:23:11;;;;;;;8.00;5.27;;;-2.00;99.90;;;;;;4935294;29;21022;-70
2021/12/21 04:25:37;;;;;;;9.40;6.27;;;-2.00;99.90;;;;;;4934943;29;20184;-69
2021/12/21 04:28:02;;;;;;;8.57;4.77;;;-2.00;99.90;;;;;;4935481;29;20184;-69
2021/12/21 04:30:28;;;;;;;6.93;5.60;;;-2.10;99.90;;;;;;4935129;29;20200;-69
2021/12/21 04:32:54;;;;;;;8.17;5.80;;;-2.10;99.90;;;;;;4935550;29;20182;-69
2021/12/21 04:35:20;;;;;;;8.03;5.17;;;-2.10;99.90;;;;;;4935084;29;20181;-70
2021/12/21 04:37:51;;;;;;;9.03;5.70;;;-2.10;99.90;;;;;;4921940;29;20465;-70
2021/12/21 04:40:20;;;;;;;7.63;5.90;;;-2.10;99.90;;;;;;4934976;29;20954;-69
2021/12/21 04:42:45;;;;;;;9.03;5.00;;;-2.10;99.90;;;;;;4935373;29;20521;-70
2021/12/21 04:45:11;;;;;;;11.27;5.80;;;-2.20;99.90;;;;;;4933681;29;20531;-69
2021/12/21 04:47:37;;;;;;;14.83;5.50;;;-2.20;99.90;;;;;;4934467;29;20277;-70
2021/12/21 04:50:03;;;;;;;7.33;4.30;;;-2.20;99.90;;;;;;4940932;29;20188;-70
2021/12/21 04:52:28;;;;;;;7.90;5.00;;;-2.20;99.90;;;;;;4942660;28;20209;-69
2021/12/21 04:54:55;;;;;;;14.93;6.77;;;-2.20;99.90;;;;;;4947129;29;20794;-69
2021/12/21 04:57:20;;;;;;;9.43;5.47;;;-2.20;99.90;;;;;;4935780;28;20574;-69
2021/12/21 04:59:46;;;;;;;9.77;5.23;;;-2.20;99.90;;;;;;4935037;29;20433;-70
2021/12/21 05:02:12;;;;;;;9.50;5.47;;;-2.20;99.90;;;;;;4934555;29;20551;-69
2021/12/21 05:04:38;;;;;;;8.53;6.30;;;-2.10;99.90;;;;;;4949785;29;20656;-69
2021/12/21 05:07:05;;;;;;;8.93;5.53;;;-2.20;99.90;;;;;;4946819;29;20236;-69
2021/12/21 05:09:39;;;;;;;8.00;6.13;;;-2.20;99.90;;;;;;4919543;29;20430;-69
2021/12/21 05:12:07;;;;;;;8.30;5.73;;;-2.20;99.90;;;;;;4934155;29;20502;-69
2021/12/21 05:14:33;;;;;;;7.50;5.40;;;-2.20;99.90;;;;;;4940237;29;20931;-69
2021/12/21 05:16:59;;;;;;;9.90;5.67;;;-2.20;99.90;;;;;;4934013;29;20429;-70
2021/12/21 05:19:25;;;;;;;9.90;6.00;;;-2.30;99.90;;;;;;4934441;29;20454;-69
2021/12/21 05:21:50;;;;;;;13.80;5.50;;;-2.30;99.90;;;;;;4930988;29;20897;-70
2021/12/21 05:24:16;;;;;;;9.77;5.77;;;-2.30;99.90;;;;;;4930680;29;20220;-69
2021/12/21 05:26:41;;;;;;;8.90;7.20;;;-2.40;99.90;;;;;;4934166;29;20644;-69
2021/12/21 05:29:07;;;;;;;10.10;6.67;;;-2.30;99.90;;;;;;4934588;29;20193;-70
2021/12/21 05:31:33;;;;;;;8.77;6.90;;;-2.40;99.90;;;;;;4934280;29;20699;-70
2021/12/21 05:33:58;;;;;;;8.17;6.20;;;-2.40;99.90;;;;;;4935006;29;20181;-69
2021/12/21 05:36:24;;;;;;;9.10;6.83;;;-2.40;99.90;;;;;;4933289;29;20185;-70
2021/12/21 05:38:56;;;;;;;13.77;8.40;;;-2.50;99.90;;;;;;4934441;29;20215;-69
2021/12/21 05:41:25;;;;;;;10.37;7.27;;;-2.50;99.90;;;;;;4933970;29;20453;-69
2021/12/21 05:43:51;;;;;;;15.60;6.37;;;-2.50;99.90;;;;;;4934271;29;20434;-69
2021/12/21 05:46:17;;;;;;;9.73;6.23;;;-2.50;99.90;;;;;;4934356;29;20441;-70
2021/12/21 05:48:43;;;;;;;13.50;9.20;;;-2.60;99.90;;;;;;4934435;29;20678;-69
2021/12/21 05:51:08;;;;;;;14.60;8.90;;;-2.60;99.90;;;;;;4934145;29;20217;-70
2021/12/21 05:53:34;;;;;;;13.63;6.87;;;-2.60;99.90;;;;;;4934385;29;20559;-68
2021/12/21 05:55:59;;;;;;;13.23;7.70;;;-2.60;99.90;;;;;;4933540;29;20279;-70
2021/12/21 05:58:25;;;;;;;10.63;6.73;;;-2.60;99.90;;;;;;4933499;29;20245;-69
2021/12/21 06:00:51;;;;;;;10.63;6.40;;;-2.60;99.90;;;;;;4933967;29;20202;-70
2021/12/21 06:03:16;;;;;;;10.80;6.50;;;-2.60;99.90;;;;;;4934001;29;20186;-69
2021/12/21 06:05:43;;;;;;;11.43;5.70;;;-2.50;99.90;;;;;;4933255;29;20584;-69
2021/12/21 06:08:08;;;;;;;8.90;6.50;;;-2.50;99.90;;;;;;4934005;29;20189;-69
2021/12/21 06:10:38;;;;;;;5.80;4.80;;;-2.60;99.90;;;;;;4933788;29;20457;-69
2021/12/21 06:15:57;;;;;;;12.20;6.73;;;-2.50;99.90;;;;;;4933332;29;20935;-68
2021/12/21 06:25:03;;;;;;;11.33;5.50;;;-2.50;99.90;;;;;;4934231;29;20525;-69
2021/12/21 06:26:51;;;;;;;11.90;7.20;;;-2.50;99.90;;;;;;4933688;29;20476;-69
2021/12/21 06:29:17;;;;;;;10.03;5.80;;;-2.40;99.90;;;;;;4933651;29;20816;-70
2021/12/21 06:31:42;;;;;;;7.27;5.83;;;-2.50;99.90;;;;;;4933717;29;20963;-70
2021/12/21 06:34:08;;;;;;;10.40;6.20;;;-2.50;99.90;;;;;;4933767;29;20241;-70
2021/12/21 06:36:34;;;;;;;6.90;5.97;;;-2.60;99.90;;;;;;4939787;29;20189;-69
2021/12/21 06:39:00;;;;;;;6.57;5.20;;;-2.60;99.90;;;;;;4933799;29;20201;-69
2021/12/21 06:41:26;;;;;;;11.83;6.83;;;-2.60;99.90;;;;;;4933423;29;20249;-70
2021/12/21 06:43:51;;;;;;;10.43;6.97;;;-2.60;99.90;;;;;;4948362;29;20177;-70
2021/12/21 06:51:39;;;;;;;10.90;6.40;;;-2.60;99.90;;;;;;4937096;29;20947;-71
2021/12/21 06:54:05;;;;;;;12.43;7.90;;;-2.50;99.90;;;;;;4937396;29;20441;-71
2021/12/21 06:56:30;;;;;;;14.20;9.57;;;-2.60;99.90;;;;;;4937159;29;20440;-71
2021/12/21 06:58:56;;;;;;;15.30;8.90;;;-2.70;99.90;;;;;;4937037;29;20205;-70
2021/12/21 07:01:28;;;;;;;10.37;6.77;;;-2.70;99.90;;;;;;4937211;29;20209;-71
2021/12/21 07:03:54;;;;;;;10.50;7.30;;;-2.80;99.90;;;;;;4937076;29;20203;-71
2021/12/21 07:06:22;;;;;;;13.87;6.57;;;-2.90;99.90;;;;;;4936619;29;20496;-71
2021/12/21 07:08:58;;;;;;;10.53;8.17;;;-2.90;99.90;;;;;;4937024;29;20481;-71
2021/12/21 07:11:36;;;;;;;9.50;7.90;;;-2.80;99.90;;;;;;4937136;29;20471;-71
2021/12/21 07:19:32;;;;;;;8.80;7.27;;;-2.70;99.90;;;;;;4950474;29;20440;-70
2021/12/21 07:21:57;;;;;;;14.10;8.30;;;-2.60;99.90;;;;;;4935922;29;20449;-71
2021/12/21 07:24:24;;;;;;;8.13;7.27;;;-2.60;99.90;;;;;;4937114;29;20437;-71
2021/12/21 07:26:50;;;;;;;6.90;6.07;;;-2.60;99.90;;;;;;4942095;29;20640;-71
2021/12/21 07:29:16;;;;;;;15.30;8.07;;;-2.60;99.90;;;;;;4941316;28;20452;-71
2021/12/21 07:31:42;;;;;;;9.60;6.70;;;-2.60;99.90;;;;;;4936611;29;20959;-71
2021/12/21 07:34:08;;;;;;;10.27;7.30;;;-2.70;99.90;;;;;;4937776;29;20497;-72
2021/12/21 07:36:34;;;;;;;17.20;7.80;;;-2.70;99.90;;;;;;4943598;29;20492;-71
2021/12/21 07:39:01;;;;;;;9.13;6.43;;;-2.80;99.90;;;;;;4938843;29;20272;-71
2021/12/21 07:41:27;;;;;;;8.37;6.47;;;-2.70;99.90;;;;;;4947881;28;20463;-71
2021/12/21 07:43:52;;;;;;;10.57;7.30;;;-2.60;99.90;;;;;;4936575;29;20591;-71
2021/12/21 07:46:18;;;;;;;14.27;8.53;;;-2.60;99.90;;;;;;4936236;29;20273;-71
2021/12/21 07:48:44;;;;;;;12.37;8.00;;;-2.50;99.90;;;;;;4950322;29;20543;-71
2021/12/21 07:51:10;;;;;;;11.87;9.10;;;-2.20;99.90;;;;;;4940267;28;20468;-68
2021/12/21 07:53:36;;;;;;;9.20;8.30;;;-1.40;99.90;;;;;;4945644;29;20782;-68
2021/12/21 07:56:02;;;;;;;16.13;8.70;;;-0.40;99.90;;;;;;4929838;29;20452;-68
2021/12/21 07:58:34;;;;;;;15.13;7.30;;;0.70;99.90;;;;;;4912275;29;20492;-69
2021/12/21 08:01:02;;;;;;;11.77;8.87;;;1.70;99.90;;;;;;4949808;28;20459;-69
2021/12/21 08:03:28;;;;;;;9.97;8.93;;;2.70;99.90;;;;;;4935561;29;20804;-69
2021/12/21 08:05:57;;;;;;;13.60;9.10;;;3.60;99.90;;;;;;4929911;29;20433;-68
2021/12/21 08:08:26;;;;;;;8.93;8.03;;;4.40;99.90;;;;;;4934361;29;20183;-68
2021/12/21 08:10:56;;;;;;;10.77;8.77;;;5.20;99.90;;;;;;4934985;29;20465;-68
2021/12/21 08:13:22;;;;;;;11.43;9.30;;;5.90;99.90;;;;;;4929052;29;20466;-70
2021/12/21 08:15:48;;;;;;;11.27;10.07;;;6.70;99.90;;;;;;4932337;29;20433;-70
2021/12/21 08:18:14;;;;;;;12.10;9.47;;;7.40;99.90;;;;;;4940986;29;20457;-70
2021/12/21 08:20:40;;;;;;;19.87;14.67;;;8.20;99.90;;;;;;4933259;28;20849;-68
2021/12/21 08:23:06;;;;;;;17.77;14.80;;;8.90;99.20;;;;;;4935989;29;20480;-71
2021/12/21 08:25:33;;;;;;;11.20;9.13;;;9.60;97.00;;;;;;4943477;28;20484;-68
2021/12/21 08:27:59;;;;;;;10.57;9.50;;;10.30;94.90;;;;;;4942467;29;20644;-69
2021/12/21 08:30:26;;;;;;;10.30;8.80;;;10.90;93.20;;;;;;4937059;29;20472;-68
2021/12/21 08:32:52;;;;;;;11.17;9.17;;;11.40;91.40;;;;;;4928471;29;20437;-67
2021/12/21 08:35:19;;;;;;;10.03;9.13;;;11.90;89.40;;;;;;4934849;29;20504;-67
2021/12/21 08:37:49;;;;;;;10.17;9.03;;;12.40;88.90;;;;;;4934128;29;20862;-67
2021/12/21 08:40:15;;;;;;;10.33;9.40;;;12.90;86.00;;;;;;4934197;29;20445;-68
2021/12/21 08:42:44;;;;;;;10.63;9.57;;;13.40;81.60;;;;;;4934227;29;20457;-70
2021/12/21 08:45:10;;;;;;;13.73;11.23;;;13.80;78.20;;;;;;4947833;29;20437;-71
2021/12/21 08:47:36;;;;;;;11.13;9.93;;;14.20;76.00;;;;;;4938648;29;20969;-71
2021/12/21 08:50:05;;;;;;;14.87;12.17;;;14.60;73.40;;;;;;4933902;28;20664;-68
2021/12/21 08:52:31;;;;;;;14.53;11.67;;;14.90;69.90;;;;;;4934003;29;20472;-68
2021/12/21 08:54:57;;;;;;;23.90;21.33;;;15.30;68.10;;;;;;4934782;29;21114;-68
2021/12/21 08:57:23;;;;;;;13.80;12.47;;;15.70;66.90;;;;;;4930621;29;20437;-70
2021/12/21 08:59:49;;;;;;;13.70;11.27;;;16.10;66.60;;;;;;4934649;29;20675;-67
2021/12/21 09:02:14;;;;;;;11.37;10.13;;;16.60;63.40;;;;;;4925697;29;20198;-67
2021/12/21 09:04:40;;;;;;;14.00;12.33;;;16.90;61.00;;;;;;4935993;29;20954;-68
2021/12/21 09:07:06;;;;;;;15.47;13.00;;;17.20;59.80;;;;;;4938916;29;20578;-67
2021/12/21 09:09:32;;;;;;;12.37;10.43;;;17.60;58.10;;;;;;4930296;29;20192;-67
2021/12/21 09:11:57;;;;;;;14.53;10.93;;;18.00;56.60;;;;;;4933271;29;20477;-67
2021/12/21 09:14:23;;;;;;;12.53;11.20;;;18.20;55.20;;;;;;4934943;29;20177;-67
2021/12/21 09:16:50;;;;;;;12.33;10.00;;;18.50;54.00;;;;;;4935213;29;20205;-67
2021/12/21 09:19:16;;;;;;;11.03;9.93;;;18.80;54.30;;;;;;4931367;29;20221;-67
2021/12/21 09:21:42;;;;;;;10.80;9.67;;;19.20;52.50;;;;;;4934197;29;20457;-67
2021/12/21 09:24:09;;;;;;;11.93;10.57;;;19.40;52.20;;;;;;4934453;29;20444;-67
2021/12/21 09:26:35;;;;;;;10.93;9.90;;;19.40;50.90;;;;;;4932072;29;20441;-67
2021/12/21 09:29:00;;;;;;;11.73;10.63;;;19.60;50.00;;;;;;4934443;29;20442;-67
2021/12/21 09:31:26;;;;;;;11.23;9.80;;;20.00;49.30;;;;;;4934311;29;20457;-67
2021/12/21 09:33:52;;;;;;;10.63;9.77;;;20.00;49.30;;;;;;4932737;29;20185;-66
2021/12/21 09:36:17;;;;;;;10.07;9.17;;;20.00;49.00;;;;;;4934885;29;20272;-66
2021/12/21 09:38:44;;;;;;;13.03;10.57;;;20.60;48.00;;;;;;4933550;29;20205;-66
2021/12/21 09:41:10;;;;;;;10.93;8.50;;;20.60;48.20;;;;;;4934531;29;20189;-66
2021/12/21 09:43:39;;;;;;;10.20;8.87;;;21.10;46.90;;;;;;4933258;29;20440;-67
2021/12/21 09:46:05;;;;;;;9.40;8.60;;;21.30;46.30;;;;;;4924408;29;20445;-66
2021/12/21 09:48:30;;;;;;;9.60;8.80;;;21.60;45.90;;;;;;4934010;29;20441;-67
2021/12/21 09:50:56;;;;;;;9.80;9.00;;;22.00;44.70;;;;;;4925578;29;20202;-68
2021/12/21 09:53:23;;;;;;;9.77;8.77;;;22.10;44.30;;;;;;4932348;29;20182;-68
2021/12/21 09:55:49;;;;;;;9.33;8.37;;;21.90;43.70;;;;;;4923838;29;20430;-68
2021/12/21 09:58:15;;;;;;;9.70;8.73;;;21.60;43.70;;;;;;4934497;28;20467;-66
2021/12/21 10:00:41;;;;;;;10.07;9.00;;;21.80;43.60;;;;;;4933796;29;20461;-66
2021/12/21 10:03:10;;;;;;;9.10;8.40;;;21.60;43.10;;;;;;4932108;29;20893;-66
2021/12/21 10:05:40;;;;;;;10.20;7.03;;;21.60;43.40;;;;;;4932290;29;20177;-66
2021/12/21 10:08:10;;;;;;;7.00;6.40;;;22.00;43.20;;;;;;4934336;29;21068;-66
2021/12/21 10:10:48;;;;;;;7.77;7.07;;;22.60;42.20;;;;;;4933344;29;20453;-66
2021/12/21 10:13:22;;;;;;;6.30;5.77;;;22.80;41.90;;;;;;4921642;29;20527;-66
2021/12/21 10:15:57;;;;;;;8.70;6.23;;;23.00;41.50;;;;;;4932045;29;20476;-66
2021/12/21 10:18:35;;;;;;;8.97;6.00;;;23.20;41.20;;;;;;4932293;29;20461;-67
2021/12/21 10:21:04;;;;;;;7.07;6.40;;;23.00;40.70;;;;;;4942459;28;20480;-66
2021/12/21 10:23:35;;;;;;;8.77;6.23;;;23.20;40.20;;;;;;4936215;29;20439;-66
2021/12/21 10:26:05;;;;;;;6.80;6.20;;;23.70;39.10;;;;;;4934957;29;21109;-66
2021/12/21 10:28:41;;;;;;;7.47;6.70;;;23.80;39.20;;;;;;4937106;29;20784;-67
2021/12/21 10:31:12;;;;;;;9.10;7.80;;;23.80;39.40;;;;;;4936766;29;20488;-69
2021/12/21 10:33:43;;;;;;;7.47;6.80;;;23.90;38.90;;;;;;4931251;29;20516;-67
2021/12/21 10:36:10;;;;;;;8.07;6.10;;;23.10;39.20;;;;;;4935011;29;20432;-67
2021/12/21 10:38:51;;;;;;;7.60;6.47;;;23.00;38.90;;;;;;4938656;29;20465;-67
2021/12/21 10:41:26;;;;;;;7.93;7.13;;;23.00;38.60;;;;;;4925026;29;20607;-67
2021/12/21 10:43:58;;;;;;;8.20;7.40;;;23.20;38.90;;;;;;4937464;29;20436;-67
2021/12/21 10:46:30;;;;;;;8.10;7.30;;;23.50;38.30;;;;;;4935281;29;20433;-67
2021/12/21 10:49:12;;;;;;;10.03;8.20;;;23.90;37.70;;;;;;4936939;28;20441;-67
2021/12/21 10:52:09;;;;;;;8.10;7.03;;;24.30;37.20;;;;;;4936944;29;20485;-68
2021/12/21 10:54:46;;;;;;;8.73;7.93;;;24.60;37.30;;;;;;4937426;29;20507;-67
2021/12/21 10:57:23;;;;;;;10.00;8.10;;;24.50;36.80;;;;;;4945121;29;20495;-67
2021/12/21 10:59:56;;;;;;;12.83;9.30;;;25.00;36.70;;;;;;4956622;28;20495;-67
2021/12/21 11:02:29;;;;;;;9.27;8.37;;;25.60;36.10;;;;;;4956710;28;20816;-67
2021/12/21 11:05:19;;;;;;;8.63;7.73;;;26.20;36.20;;;;;;4943550;28;20465;-67
2021/12/21 11:10:15;;;;;;;8.37;7.43;;;26.10;34.70;;;;;;4926645;29;20935;-67
2021/12/21 11:13:07;;;;;;;7.90;7.20;;;26.30;34.70;;;;;;4925781;29;20441;-67
2021/12/21 11:15:39;;;;;;;8.80;7.90;;;25.10;34.60;;;;;;4917655;29;20440;-67
2021/12/21 11:18:13;;;;;;;12.03;7.83;;;25.00;34.90;;;;;;4935806;29;20467;-67
2021/12/21 11:20:42;;;;;;;9.30;8.37;;;24.40;35.30;;;;;;4934577;29;20449;-68
2021/12/21 11:23:10;;;;;;;9.60;8.60;;;24.50;35.60;;;;;;4918145;29;20509;-69
2021/12/21 11:25:36;;;;;;;11.10;8.77;;;24.40;35.70;;;;;;4929130;29;20425;-67
2021/12/21 11:28:04;;;;;;;9.63;8.63;;;23.70;35.90;;;;;;4948151;28;20488;-68
2021/12/21 11:30:31;;;;;;;10.60;9.40;;;24.00;36.00;;;;;;4956040;28;20425;-67
2021/12/21 11:33:00;;;;;;;10.17;8.47;;;25.10;35.00;;;;;;4933536;29;20932;-67
2021/12/21 11:38:01;;;;;;;9.00;8.20;;;25.80;34.20;;;;;;4945687;29;20464;-67
2021/12/21 11:40:30;;;;;;;8.70;7.80;;;25.90;34.30;;;;;;4955862;28;20412;-67
2021/12/21 11:43:25;;;;;;;8.17;7.33;;;26.30;33.80;;;;;;4936048;29;20724;-68
2021/12/21 11:46:00;;;;;;;9.13;7.63;;;27.00;33.20;;;;;;4927270;29;20851;-67
2021/12/21 11:48:35;;;;;;;10.40;9.23;;;27.10;32.50;;;;;;4937719;29;20549;-68
2021/12/21 11:51:07;;;;;;;8.40;7.60;;;27.40;32.50;;;;;;4936676;29;20444;-68
2021/12/21 11:53:34;;;;;;;9.30;8.40;;;28.10;31.60;;;;;;4926625;29;20509;-68
2021/12/21 11:56:00;;;;;;;8.60;7.17;;;28.60;30.90;;;;;;4917866;29;20433;-68
2021/12/21 11:58:32;;;;;;;8.47;7.63;;;28.70;30.60;;;;;;4935993;29;20497;-68
2021/12/21 12:01:23;;;;;;;7.87;7.10;;;28.60;30.60;;;;;;4936451;29;21014;-68
2021/12/21 12:04:05;;;;;;;8.07;7.37;;;28.00;30.80;;;;;;4936489;29;20422;-68
2021/12/21 12:06:53;;;;;;;7.00;6.40;;;27.70;30.90;;;;;;4938801;29;20420;-69
2021/12/21 12:09:30;;;;;;;8.47;7.67;;;28.30;30.60;;;;;;4955406;29;20420;-68
2021/12/21 12:12:05;;;;;;;7.50;6.70;;;28.20;30.60;;;;;;4955294;28;20554;-69
2021/12/21 12:14:31;;;;;;;8.13;6.73;;;28.40;30.00;;;;;;4955500;29;20640;-69
2021/12/21 12:17:01;;;;;;;7.57;6.87;;;29.00;29.90;;;;;;4950442;28;21001;-68
2021/12/21 12:19:36;;;;;;;10.40;9.43;;;29.70;29.50;;;;;;4953845;29;20682;-68
2021/12/21 12:22:07;;;;;;;8.40;7.20;;;29.60;29.10;;;;;;4955252;28;20462;-68
2021/12/21 12:24:54;;;;;;;6.73;6.13;;;29.20;29.40;;;;;;4937841;29;20943;-68
2021/12/21 12:27:22;;;;;;;7.13;6.00;;;28.90;29.20;;;;;;4930231;29;20468;-68
2021/12/21 12:29:53;;;;;;;7.47;6.77;;;28.80;29.40;;;;;;4935320;29;21060;-68
2021/12/21 12:32:37;;;;;;;6.90;6.20;;;28.10;29.40;;;;;;4951749;28;20543;-68
2021/12/21 12:35:09;;;;;;;9.70;7.10;;;28.40;29.60;;;;;;4951708;28;20420;-68
2021/12/21 12:37:48;;;;;;;7.33;6.40;;;28.80;29.40;;;;;;4933961;29;20473;-68
2021/12/21 12:40:15;;;;;;;7.50;6.80;;;28.80;29.10;;;;;;4932784;29;20775;-68
2021/12/21 12:42:41;;;;;;;7.87;7.27;;;27.70;29.30;;;;;;4939795;29;20561;-68
2021/12/21 12:45:19;;;;;;;7.57;6.87;;;27.50;29.80;;;;;;4942456;29;20444;-68
2021/12/21 12:47:52;;;;;;;8.57;7.00;;;27.30;30.00;;;;;;4930202;29;20829;-68
2021/12/21 12:50:30;;;;;;;9.67;8.57;;;27.50;29.60;;;;;;4932489;29;20966;-68
2021/12/21 12:53:02;;;;;;;8.90;8.10;;;28.00;29.50;;;;;;4932056;29;20947;-68
2021/12/21 12:55:51;;;;;;;8.47;6.53;;;28.40;29.20;;;;;;4931961;29;20440;-69
2021/12/21 12:58:22;;;;;;;6.40;5.90;;;27.80;29.40;;;;;;4931541;29;20559;-68
2021/12/21 13:01:10;;;;;;;6.67;6.07;;;28.30;29.40;;;;;;4932303;29;20445;-68
2021/12/21 13:03:42;;;;;;;8.60;6.10;;;28.50;29.20;;;;;;4932324;29;20429;-68
2021/12/21 13:06:13;;;;;;;6.77;6.27;;;28.20;29.20;;;;;;4933112;29;20428;-68
2021/12/21 13:08:40;;;;;;;7.40;6.20;;;28.10;29.40;;;;;;4950724;29;20435;-68
2021/12/21 13:11:06;;;;;;;5.97;5.47;;;28.10;29.00;;;;;;4950934;28;20499;-68
2021/12/21 13:13:43;;;;;;;6.90;6.30;;;28.10;29.10;;;;;;4951134;28;20431;-68
2021/12/21 13:16:11;;;;;;;7.67;5.67;;;26.70;29.60;;;;;;4946633;28;20528;-69
2021/12/21 13:18:47;;;;;;;9.17;5.87;;;25.90;29.80;;;;;;4947250;29;20496;-68
2021/12/21 13:21:21;;;;;;;6.67;6.17;;;24.80;30.80;;;;;;4928715;29;20457;-68
2021/12/21 13:23:50;;;;;;;8.10;6.23;;;25.00;30.70;;;;;;4932003;29;20448;-68
2021/12/21 13:26:17;;;;;;;6.17;5.57;;;24.50;31.20;;;;;;4933576;29;20932;-68
2021/12/21 13:28:48;;;;;;;6.73;5.60;;;24.50;31.10;;;;;;4950556;28;20458;-68
2021/12/21 13:31:19;;;;;;;10.70;5.73;;;22.60;32.30;;;;;;4950818;28;20531;-68
2021/12/21 13:33:59;;;;;;;6.97;6.23;;;21.40;33.80;;;;;;4949330;28;20945;-67
2021/12/21 13:36:36;;;;;;;6.70;6.03;;;19.90;35.60;;;;;;4947575;28;20440;-68
2021/12/21 13:39:19;;;;;;;6.70;6.00;;;17.50;38.10;;;;;;4949440;28;20977;-67
2021/12/21 13:41:53;;;;;;;6.93;6.10;;;15.80;40.50;;;;;;4950528;28;20985;-67
2021/12/21 13:44:28;;;;;;;6.60;6.00;;;13.50;43.60;;;;;;4949308;28;20443;-67